createdAt,value
2019-02-10T00:01:15.921Z,99577.42
2019-02-10T00:03:44.446Z,99569.77
2019-02-10T00:06:12.851Z,99569.78
2019-02-10T00:08:41.298Z,99570.63
2019-02-10T00:11:09.801Z,99565.41
2019-02-10T00:13:38.227Z,99563.32
2019-02-10T00:16:17.121Z,99564.20
2019-02-10T00:18:45.546Z,99557.88
2019-02-10T00:21:14.083Z,99550.78
2019-02-10T00:23:42.755Z,99555.91
2019-02-10T00:26:11.327Z,99557.16
2019-02-10T00:28:39.741Z,99553.37
2019-02-10T00:31:08.367Z,99552.09
2019-02-10T00:33:36.769Z,99548.28
2019-02-10T00:36:05.278Z,99548.70
2019-02-10T00:38:33.733Z,99547.09
2019-02-10T00:41:02.214Z,99544.73
2019-02-10T00:43:31.113Z,99546.09
2019-02-10T00:45:59.571Z,99549.49
2019-02-10T00:48:28.034Z,99547.02
2019-02-10T00:50:56.536Z,99543.20
2019-02-10T00:53:25.019Z,99541.02
2019-02-10T00:55:53.460Z,99544.05
2019-02-10T00:58:21.919Z,99542.31
2019-02-10T01:00:50.421Z,99531.86
2019-02-10T01:03:19.290Z,99533.12
2019-02-10T01:05:47.740Z,99540.04
2019-02-10T01:08:16.123Z,99531.98
2019-02-10T01:10:45.567Z,99515.52
2019-02-10T01:13:14.013Z,99520.89
2019-02-10T01:15:42.424Z,99525.58
2019-02-10T01:18:11.454Z,99519.52
2019-02-10T01:20:39.979Z,99517.79
2019-02-10T01:23:08.460Z,99513.97
2019-02-10T01:25:36.879Z,99517.86
2019-02-10T01:28:05.520Z,99512.77
2019-02-10T01:30:34.095Z,99504.80
2019-02-10T01:33:02.560Z,99501.95
2019-02-10T01:35:31.621Z,99508.00
2019-02-10T01:38:00.066Z,99504.70
2019-02-10T01:40:28.490Z,99495.81
2019-02-10T01:42:56.946Z,99495.00
2019-02-10T01:45:25.444Z,99491.58
2019-02-10T01:47:53.903Z,99484.14
2019-02-10T01:50:22.385Z,99483.13
2019-02-10T01:52:50.833Z,99485.22
2019-02-10T01:55:19.248Z,99472.22
2019-02-10T01:57:47.731Z,99473.93
2019-02-10T02:00:17.142Z,99473.84
2019-02-10T02:02:45.724Z,99463.28
2019-02-10T02:05:14.551Z,99459.48
2019-02-10T02:07:43.073Z,99450.93
2019-02-10T02:10:13.191Z,99444.13
2019-02-10T02:12:42.021Z,99437.34
2019-02-10T02:15:13.399Z,99432.92
2019-02-10T02:17:44.158Z,99427.43
2019-02-10T02:20:13.872Z,99428.84
2019-02-10T02:22:42.453Z,99426.84
2019-02-10T02:25:12.440Z,99426.75
2019-02-10T02:27:40.947Z,99422.59
2019-02-10T02:30:12.259Z,99414.04
2019-02-10T02:32:40.708Z,99395.81
2019-02-10T02:35:09.255Z,99396.35
2019-02-10T02:37:37.944Z,99386.25
2019-02-10T02:40:09.111Z,99383.39
2019-02-10T02:42:37.704Z,99381.36
2019-02-10T02:45:08.671Z,99380.19
2019-02-10T02:47:37.093Z,99374.75
2019-02-10T02:50:07.862Z,99370.92
2019-02-10T02:52:36.289Z,99375.19
2019-02-10T02:55:06.456Z,99370.11
2019-02-10T02:57:34.956Z,99368.87
2019-02-10T03:00:03.531Z,99362.48
2019-02-10T03:02:31.937Z,99360.35
2019-02-10T03:05:00.897Z,99360.44
2019-02-10T03:07:29.326Z,99362.13
2019-02-10T03:09:57.833Z,99351.97
2019-02-10T03:12:26.315Z,99357.45
2019-02-10T03:14:54.720Z,99343.91
2019-02-10T03:17:23.158Z,99341.84
2019-02-10T03:19:51.597Z,99339.72
2019-02-10T03:22:20.061Z,99332.95
2019-02-10T03:24:48.476Z,99336.27
2019-02-10T03:27:16.942Z,99325.65
2019-02-10T03:29:45.406Z,99321.03
2019-02-10T03:32:13.865Z,99316.05
2019-02-10T03:34:42.373Z,99316.41
2019-02-10T03:37:10.875Z,99312.98
2019-02-10T03:39:39.306Z,99303.28
2019-02-10T03:42:08.139Z,99290.45
2019-02-10T03:44:36.689Z,99282.66
2019-02-10T03:47:05.179Z,99280.11
2019-02-10T03:49:33.651Z,99279.21
2019-02-10T03:52:02.136Z,99269.84
2019-02-10T03:54:30.716Z,99266.00
2019-02-10T03:56:59.318Z,99260.39
2019-02-10T03:59:27.791Z,99253.57
2019-02-10T04:01:56.287Z,99250.64
2019-02-10T04:04:24.769Z,99253.50
2019-02-10T04:06:53.174Z,99255.19
2019-02-10T04:09:22.032Z,99236.15
2019-02-10T04:11:50.474Z,99237.40
2019-02-10T04:14:18.968Z,99232.88
2019-02-10T04:16:47.414Z,99228.70
2019-02-10T04:19:15.869Z,99227.12
2019-02-10T04:21:44.316Z,99218.67
2019-02-10T04:24:12.828Z,99211.47
2019-02-10T04:26:41.307Z,99205.95
2019-02-10T04:29:09.772Z,99205.83
2019-02-10T04:31:38.249Z,99194.80
2019-02-10T04:34:06.659Z,99195.05
2019-02-10T04:36:35.255Z,99185.17
2019-02-10T04:39:04.828Z,99185.05
2019-02-10T04:41:33.255Z,99170.59
2019-02-10T04:44:01.713Z,99167.53
2019-02-10T04:46:30.134Z,99158.83
2019-02-10T04:48:58.569Z,99159.05
2019-02-10T04:51:27.015Z,99157.34
2019-02-10T04:53:55.441Z,99154.86
2019-02-10T04:56:23.877Z,99141.75
2019-02-10T04:58:52.380Z,99140.45
2019-02-10T05:01:20.851Z,99134.23
2019-02-10T05:03:49.322Z,99121.05
2019-02-10T05:06:17.772Z,99107.13
2019-02-10T05:08:46.217Z,99091.06
2019-02-10T05:11:14.969Z,99088.58
2019-02-10T05:13:43.465Z,99090.73
2019-02-10T05:16:11.921Z,99087.66
2019-02-10T05:18:40.348Z,99078.41
2019-02-10T05:21:08.808Z,99081.04
2019-02-10T05:23:37.505Z,99071.70
2019-02-10T05:26:05.915Z,99064.88
2019-02-10T05:28:34.363Z,99057.86
2019-02-10T05:31:02.816Z,99043.77
2019-02-10T05:33:31.235Z,99044.67
2019-02-10T05:35:59.821Z,99040.42
2019-02-10T05:38:28.266Z,99039.35
2019-02-10T05:40:56.694Z,99045.38
2019-02-10T05:43:25.182Z,99032.95
2019-02-10T05:45:53.615Z,99033.36
2019-02-10T05:48:22.115Z,99031.02
2019-02-10T05:50:50.556Z,99021.07
2019-02-10T05:53:19.055Z,99015.77
2019-02-10T05:55:47.575Z,99010.73
2019-02-10T05:58:16.123Z,99000.19
2019-02-10T06:00:44.543Z,98995.20
2019-02-10T06:03:13.001Z,98988.54
2019-02-10T06:05:41.402Z,98979.31
2019-02-10T06:08:13.533Z,98975.04
2019-02-10T06:10:40.056Z,98961.54
2019-02-10T06:13:08.467Z,98954.56
2019-02-10T06:15:36.931Z,98949.67
2019-02-10T06:18:05.363Z,98938.25
2019-02-10T06:20:33.785Z,98936.28
2019-02-10T06:23:02.296Z,98915.59
2019-02-10T06:25:30.783Z,98910.92
2019-02-10T06:27:59.248Z,98891.00
2019-02-10T06:30:27.776Z,98878.66
2019-02-10T06:32:56.299Z,98875.59
2019-02-10T06:35:24.741Z,98875.91
2019-02-10T06:37:53.293Z,98871.25
2019-02-10T06:40:21.751Z,98866.64
2019-02-10T06:42:50.182Z,98856.93
2019-02-10T06:45:18.718Z,98857.93
2019-02-10T06:47:47.194Z,98851.23
2019-02-10T06:50:15.630Z,98853.88
2019-02-10T06:52:44.076Z,98850.90
2019-02-10T06:55:13.029Z,98845.02
2019-02-10T06:57:41.497Z,98846.23
2019-02-10T07:00:19.171Z,98834.81
2019-02-10T07:03:24.911Z,98828.79
2019-02-10T07:05:53.353Z,98829.88
2019-02-10T07:08:21.845Z,98822.70
2019-02-10T07:10:50.340Z,98818.39
2019-02-10T07:13:21.977Z,98811.63
2019-02-10T07:16:26.798Z,98805.73
2019-02-10T07:19:31.552Z,98796.94
2019-02-10T07:22:01.057Z,98787.19
2019-02-10T07:24:41.376Z,98771.57
2019-02-10T07:27:15.621Z,98765.22
2019-02-10T07:30:05.246Z,98761.98
2019-02-10T07:32:51.450Z,98751.77
2019-02-10T07:35:54.429Z,98748.02
2019-02-10T07:38:28.566Z,98738.88
2019-02-10T07:41:00.104Z,98733.73
2019-02-10T07:43:34.309Z,98714.82
2019-02-10T07:46:05.850Z,98704.66
2019-02-10T07:48:43.066Z,98690.42
2019-02-10T07:51:14.575Z,98680.70
2019-02-10T07:53:46.135Z,98671.86
2019-02-10T07:56:29.565Z,98660.05
2019-02-10T07:59:06.697Z,98646.03
2019-02-10T08:01:47.329Z,98631.31
2019-02-10T08:04:35.265Z,98621.64
2019-02-10T08:07:32.530Z,98612.28
2019-02-10T08:10:04.056Z,98595.53
2019-02-10T08:12:55.047Z,98582.78
2019-02-10T08:15:47.509Z,98558.19
2019-02-10T08:18:24.943Z,98550.27
2019-02-10T08:21:11.509Z,98532.54
2019-02-10T08:23:52.206Z,98518.06
2019-02-10T08:26:35.000Z,98496.91
2019-02-10T08:29:23.061Z,98503.94
2019-02-10T08:32:23.079Z,98484.53
2019-02-10T08:35:06.799Z,98468.45
2019-02-10T08:37:53.453Z,98465.12
2019-02-10T08:40:44.307Z,98461.63
2019-02-10T08:43:33.575Z,98458.16
2019-02-10T08:46:27.637Z,98446.75
2019-02-10T08:49:01.807Z,98425.14
2019-02-10T08:51:33.354Z,98420.44
2019-02-10T08:54:01.884Z,98409.32
2019-02-10T08:56:30.352Z,98394.05
2019-02-10T08:58:58.847Z,98391.33
2019-02-10T09:01:27.385Z,98387.75
2019-02-10T09:03:55.943Z,98380.80
2019-02-10T09:06:24.435Z,98364.18
2019-02-10T09:08:52.983Z,98358.20
2019-02-10T09:11:21.413Z,98353.23
2019-02-10T09:13:49.859Z,98345.16
2019-02-10T09:16:18.317Z,98338.81
2019-02-10T09:18:46.933Z,98339.55
2019-02-10T09:21:15.425Z,98326.29
2019-02-10T09:23:43.929Z,98319.03
2019-02-10T09:26:12.372Z,98312.08
2019-02-10T09:28:40.876Z,98311.63
2019-02-10T09:31:09.616Z,98309.21
2019-02-10T09:33:38.041Z,98300.60
2019-02-10T09:36:06.724Z,98285.87
2019-02-10T09:38:35.781Z,98279.69
2019-02-10T09:41:07.118Z,98273.16
2019-02-10T09:43:35.763Z,98279.70
2019-02-10T09:46:04.343Z,98262.01
2019-02-10T09:48:32.906Z,98269.66
2019-02-10T09:51:01.413Z,98256.56
2019-02-10T09:53:29.845Z,98251.30
2019-02-10T09:55:58.875Z,98240.55
2019-02-10T09:58:27.331Z,98228.19
2019-02-10T10:00:55.827Z,98225.45
2019-02-10T10:03:24.447Z,98219.81
2019-02-10T10:05:53.226Z,98220.04
2019-02-10T10:08:21.633Z,98217.16
2019-02-10T10:10:51.818Z,98209.73
2019-02-10T10:13:20.278Z,98202.36
2019-02-10T10:15:48.801Z,98199.67
2019-02-10T10:18:17.662Z,98195.86
2019-02-10T10:20:46.139Z,98182.93
2019-02-10T10:23:14.631Z,98183.89
2019-02-10T10:25:43.323Z,98174.47
2019-02-10T10:28:12.018Z,98166.69
2019-02-10T10:30:40.977Z,98159.55
2019-02-10T10:33:09.419Z,98156.23
2019-02-10T10:35:37.955Z,98139.17
2019-02-10T10:38:06.434Z,98124.50
2019-02-10T10:40:35.023Z,98133.20
2019-02-10T10:43:03.476Z,98125.14
2019-02-10T10:45:31.956Z,98119.02
2019-02-10T10:48:00.437Z,98119.56
2019-02-10T10:50:28.899Z,98121.98
2019-02-10T10:52:57.528Z,98108.58
2019-02-10T10:55:26.213Z,98103.39
2019-02-10T10:57:54.824Z,98098.52
2019-02-10T11:00:23.423Z,98100.55
2019-02-10T11:02:51.955Z,98088.92
2019-02-10T11:05:20.439Z,98071.48
2019-02-10T11:07:48.897Z,98083.55
2019-02-10T11:10:17.542Z,98068.59
2019-02-10T11:12:46.116Z,98065.06
2019-02-10T11:15:16.961Z,98065.94
2019-02-10T11:17:45.294Z,98044.34
2019-02-10T11:20:14.182Z,98059.86
2019-02-10T11:22:42.588Z,98048.13
2019-02-10T11:25:11.844Z,98035.44
2019-02-10T11:27:40.250Z,98028.38
2019-02-10T11:30:13.648Z,98019.80
2019-02-10T11:32:42.168Z,98018.36
2019-02-10T11:35:10.715Z,98002.55
2019-02-10T11:37:39.486Z,98001.09
2019-02-10T11:40:10.546Z,97999.42
2019-02-10T11:42:38.943Z,97990.23
2019-02-10T11:45:13.215Z,97989.20
2019-02-10T11:47:43.477Z,97983.86
2019-02-10T11:50:17.437Z,97983.96
2019-02-10T11:52:45.886Z,97979.88
2019-02-10T11:55:14.372Z,97972.61
2019-02-10T11:57:42.797Z,97984.93
2019-02-10T12:00:16.695Z,97968.96
2019-02-10T12:02:45.122Z,97964.47
2019-02-10T12:05:13.562Z,97957.87
2019-02-10T12:07:41.989Z,97955.02
2019-02-10T12:10:11.645Z,97958.13
2019-02-10T12:12:40.105Z,97951.08
2019-02-10T12:15:13.703Z,97959.74
2019-02-10T12:17:42.108Z,97948.91
2019-02-10T12:20:14.414Z,97953.97
2019-02-10T12:22:49.813Z,97941.02
2019-02-10T12:25:13.106Z,97943.95
2019-02-10T12:27:41.538Z,97926.44
2019-02-10T12:30:13.200Z,97919.13
2019-02-10T12:32:41.686Z,97919.26
2019-02-10T12:35:11.447Z,97914.89
2019-02-10T12:37:39.927Z,97916.30
2019-02-10T12:40:09.775Z,97912.64
2019-02-10T12:42:38.191Z,97883.20
2019-02-10T12:45:09.600Z,97901.39
2019-02-10T12:47:38.071Z,97890.55
2019-02-10T12:50:09.681Z,97884.45
2019-02-10T12:52:38.117Z,97888.57
2019-02-10T12:55:08.001Z,97882.97
2019-02-10T12:57:36.413Z,97874.93
2019-02-10T13:00:11.219Z,97874.05
2019-02-10T13:02:39.626Z,97874.16
2019-02-10T13:05:08.313Z,97866.22
2019-02-10T13:07:36.745Z,97863.52
2019-02-10T13:10:10.976Z,97844.56
2019-02-10T13:12:39.447Z,97844.89
2019-02-10T13:15:09.786Z,97841.06
2019-02-10T13:17:38.204Z,97836.70
2019-02-10T13:20:09.703Z,97832.20
2019-02-10T13:22:38.132Z,97818.96
2019-02-10T13:25:09.213Z,97812.87
2019-02-10T13:27:37.641Z,97805.01
2019-02-10T13:30:09.458Z,97803.12
2019-02-10T13:32:37.880Z,97807.98
2019-02-10T13:35:06.803Z,97799.02
2019-02-10T13:37:35.241Z,97799.19
2019-02-10T13:40:05.965Z,97788.63
2019-02-10T13:42:35.503Z,97781.44
2019-02-10T13:45:08.673Z,97786.00
2019-02-10T13:47:37.106Z,97780.37
2019-02-10T13:50:11.111Z,97773.38
2019-02-10T13:52:39.533Z,97767.46
2019-02-10T13:55:10.973Z,97771.84
2019-02-10T13:57:39.395Z,97760.16
2019-02-10T14:00:19.378Z,97765.47
2019-02-10T14:02:47.794Z,97752.91
2019-02-10T14:05:16.278Z,97754.47
2019-02-10T14:07:45.805Z,97764.59
2019-02-10T14:10:15.940Z,97758.23
2019-02-10T14:12:44.760Z,97749.84
2019-02-10T14:15:17.339Z,97764.80
2019-02-10T14:17:45.888Z,97760.33
2019-02-10T14:20:19.295Z,97751.86
2019-02-10T14:22:47.800Z,97755.61
2019-02-10T14:25:17.654Z,97753.25
2019-02-10T14:27:46.140Z,97752.91
2019-02-10T14:30:17.823Z,97749.91
2019-02-10T14:32:46.272Z,97742.98
2019-02-10T14:35:14.712Z,97742.59
2019-02-10T14:37:43.159Z,97741.72
2019-02-10T14:40:12.364Z,97754.02
2019-02-10T14:42:40.956Z,97745.08
2019-02-10T14:45:16.384Z,97750.38
2019-02-10T14:47:44.787Z,97745.93
2019-02-10T14:50:23.677Z,97748.38
2019-02-10T14:52:53.674Z,97744.66
2019-02-10T14:55:22.080Z,97755.69
2019-02-10T14:57:50.658Z,97747.75
2019-02-10T15:00:19.048Z,97751.36
2019-02-10T15:02:47.484Z,97747.80
2019-02-10T15:05:15.906Z,97738.13
2019-02-10T15:07:44.310Z,97743.12
2019-02-10T15:10:22.942Z,97730.66
2019-02-10T15:12:51.475Z,97739.23
2019-02-10T15:15:19.957Z,97735.03
2019-02-10T15:17:48.404Z,97745.79
2019-02-10T15:20:16.861Z,97742.96
2019-02-10T15:22:45.866Z,97748.34
2019-02-10T15:25:14.849Z,97739.05
2019-02-10T15:27:45.171Z,97737.42
2019-02-10T15:30:14.900Z,97738.97
2019-02-10T15:32:43.298Z,97748.10
2019-02-10T15:35:12.299Z,97746.36
2019-02-10T15:37:41.113Z,97744.51
2019-02-10T15:40:11.647Z,97745.33
2019-02-10T15:42:40.102Z,97744.16
2019-02-10T15:45:12.572Z,97733.83
2019-02-10T15:47:41.064Z,97730.35
2019-02-10T15:50:11.630Z,97731.09
2019-02-10T15:52:40.046Z,97741.77
2019-02-10T15:55:13.758Z,97746.13
2019-02-10T15:57:42.275Z,97745.20
2019-02-10T16:00:19.807Z,97743.46
2019-02-10T16:02:48.512Z,97734.98
2019-02-10T16:05:17.284Z,97731.97
2019-02-10T16:07:45.689Z,97735.67
2019-02-10T16:10:14.393Z,97749.72
2019-02-10T16:12:42.941Z,97735.82
2019-02-10T16:15:12.750Z,97745.86
2019-02-10T16:17:41.196Z,97746.59
2019-02-10T16:20:14.397Z,97747.75
2019-02-10T16:22:42.834Z,97752.12
2019-02-10T16:25:11.562Z,97756.77
2019-02-10T16:27:39.957Z,97755.13
2019-02-10T16:30:14.260Z,97743.70
2019-02-10T16:32:49.670Z,97752.59
2019-02-10T16:35:13.086Z,97753.58
2019-02-10T16:37:41.565Z,97752.30
2019-02-10T16:40:16.138Z,97746.44
2019-02-10T16:42:44.706Z,97753.55
2019-02-10T16:45:14.065Z,97762.53
2019-02-10T16:47:42.624Z,97775.22
2019-02-10T16:50:16.126Z,97781.70
2019-02-10T16:52:44.541Z,97777.48
2019-02-10T16:55:15.891Z,97775.65
2019-02-10T16:57:44.362Z,97779.83
2019-02-10T17:00:16.215Z,97778.73
2019-02-10T17:02:44.709Z,97775.97
2019-02-10T17:05:13.600Z,97769.67
2019-02-10T17:07:42.086Z,97778.09
2019-02-10T17:10:15.472Z,97776.28
2019-02-10T17:12:43.878Z,97773.17
2019-02-10T17:15:13.362Z,97768.46
2019-02-10T17:17:41.790Z,97782.02
2019-02-10T17:20:14.960Z,97790.58
2019-02-10T17:22:43.420Z,97796.98
2019-02-10T17:25:17.993Z,97793.27
2019-02-10T17:27:46.423Z,97793.38
2019-02-10T17:30:16.025Z,97801.16
2019-02-10T17:32:44.443Z,97799.67
2019-02-10T17:35:14.302Z,97802.67
2019-02-10T17:37:42.723Z,97797.22
2019-02-10T17:40:23.092Z,97800.34
2019-02-10T17:42:51.581Z,97797.22
2019-02-10T17:45:20.030Z,97795.84
2019-02-10T17:47:48.479Z,97798.84
2019-02-10T17:50:16.920Z,97809.10
2019-02-10T17:52:45.454Z,97820.43
2019-02-10T17:55:13.900Z,97823.86
2019-02-10T17:57:42.341Z,97840.66
2019-02-10T18:00:17.033Z,97837.59
2019-02-10T18:02:45.633Z,97838.79
2019-02-10T18:05:14.119Z,97837.88
2019-02-10T18:07:42.519Z,97832.34
2019-02-10T18:10:13.596Z,97836.33
2019-02-10T18:12:42.271Z,97838.80
2019-02-10T18:15:13.290Z,97836.16
2019-02-10T18:17:49.241Z,97832.11
2019-02-10T18:20:28.196Z,97835.74
2019-02-10T18:22:58.351Z,97830.42
2019-02-10T18:25:44.624Z,97829.15
2019-02-10T18:28:20.441Z,97830.55
2019-02-10T18:30:56.247Z,97833.49
2019-02-10T18:33:35.119Z,97835.42
2019-02-10T18:36:23.467Z,97841.20
2019-02-10T18:38:53.530Z,97843.68
2019-02-10T18:41:23.611Z,97849.53
2019-02-10T18:44:05.404Z,97842.11
2019-02-10T18:46:38.275Z,97856.25
2019-02-10T18:49:14.126Z,97850.28
2019-02-10T18:51:59.528Z,97851.91
2019-02-10T18:54:32.798Z,97849.95
2019-02-10T18:57:19.030Z,97849.82
2019-02-10T18:59:57.586Z,97855.80
2019-02-10T19:02:30.444Z,97850.88
2019-02-10T19:05:00.524Z,97844.56
2019-02-10T19:07:30.583Z,97837.52
2019-02-10T19:10:06.122Z,97842.55
2019-02-10T19:12:38.709Z,97839.64
2019-02-10T19:15:15.604Z,97846.42
2019-02-10T19:17:51.384Z,97850.12
2019-02-10T19:20:37.233Z,97850.47
2019-02-10T19:23:07.298Z,97861.05
2019-02-10T19:25:40.124Z,97860.14
2019-02-10T19:28:10.162Z,97865.69
2019-02-10T19:30:40.210Z,97874.53
2019-02-10T19:33:16.016Z,97881.55
2019-02-10T19:35:49.141Z,97873.77
2019-02-10T19:38:19.187Z,97883.72
2019-02-10T19:40:49.276Z,97877.94
2019-02-10T19:43:31.210Z,97892.09
2019-02-10T19:46:01.306Z,97889.73
2019-02-10T19:48:31.420Z,97889.69
2019-02-10T19:51:07.307Z,97900.75
2019-02-10T19:53:43.027Z,97902.81
2019-02-10T19:56:15.678Z,97904.08
2019-02-10T19:58:51.656Z,97905.22
2019-02-10T20:01:21.678Z,97907.06
2019-02-10T20:04:03.710Z,97903.97
2019-02-10T20:06:36.490Z,97903.08
2019-02-10T20:09:07.992Z,97903.08
2019-02-10T20:11:44.017Z,97917.77
2019-02-10T20:14:14.151Z,97914.30
2019-02-10T20:16:55.925Z,97916.65
2019-02-10T20:19:31.569Z,97923.88
2019-02-10T20:22:01.803Z,97916.34
2019-02-10T20:24:31.847Z,97927.78
2019-02-10T20:27:10.976Z,97926.70
2019-02-10T20:29:43.720Z,97929.61
2019-02-10T20:32:22.862Z,97938.14
2019-02-10T20:34:55.898Z,97938.59
2019-02-10T20:37:42.794Z,97941.23
2019-02-10T20:40:28.087Z,97949.00
2019-02-10T20:43:07.121Z,97954.58
2019-02-10T20:45:39.695Z,97954.64
2019-02-10T20:48:12.566Z,97971.14
2019-02-10T20:50:48.695Z,97970.62
2019-02-10T20:53:18.772Z,97973.56
2019-02-10T20:55:48.852Z,97986.71
2019-02-10T20:58:27.750Z,97998.83
2019-02-10T21:00:57.798Z,98005.02
2019-02-10T21:03:36.663Z,98004.65
2019-02-10T21:06:15.440Z,98020.94
2019-02-10T21:08:48.499Z,98029.38
2019-02-10T21:11:18.638Z,98031.13
2019-02-10T21:13:48.773Z,98046.09
2019-02-10T21:16:24.578Z,98050.57
2019-02-10T21:18:54.726Z,98045.56
2019-02-10T21:21:30.582Z,98050.31
2019-02-10T21:24:03.740Z,98064.27
2019-02-10T21:26:33.775Z,98072.33
2019-02-10T21:29:18.844Z,98079.59
2019-02-10T21:31:48.902Z,98088.15
2019-02-10T21:34:18.982Z,98096.58
2019-02-10T21:36:49.043Z,98107.75
2019-02-10T21:39:21.678Z,98109.44
2019-02-10T21:41:57.261Z,98117.34
2019-02-10T21:44:27.332Z,98123.69
2019-02-10T21:46:57.397Z,98106.91
2019-02-10T21:49:25.836Z,98134.48
2019-02-10T21:51:54.261Z,98133.91
2019-02-10T21:54:23.023Z,98139.48
2019-02-10T21:56:51.435Z,98143.82
2019-02-10T21:59:19.890Z,98137.88
2019-02-10T22:01:48.301Z,98145.45
2019-02-10T22:04:16.699Z,98155.09
2019-02-10T22:06:45.142Z,98160.92
2019-02-10T22:09:13.543Z,98170.13
2019-02-10T22:11:41.952Z,98169.80
2019-02-10T22:14:13.336Z,98173.01
2019-02-10T22:16:41.733Z,98191.41
2019-02-10T22:19:10.190Z,98178.29
2019-02-10T22:21:38.603Z,98208.42
2019-02-10T22:24:07.091Z,98224.52
2019-02-10T22:26:35.549Z,98228.80
2019-02-10T22:29:04.015Z,98228.23
2019-02-10T22:31:32.447Z,98246.54
2019-02-10T22:34:00.900Z,98245.03
2019-02-10T22:36:29.317Z,98255.16
2019-02-10T22:38:57.763Z,98264.30
2019-02-10T22:41:26.214Z,98268.23
2019-02-10T22:43:54.688Z,98278.44
2019-02-10T22:46:23.131Z,98277.13
2019-02-10T22:48:51.573Z,98288.14
2019-02-10T22:51:19.989Z,98283.55
2019-02-10T22:53:48.432Z,98294.17
2019-02-10T22:56:16.880Z,98289.81
2019-02-10T22:58:45.328Z,98297.79
2019-02-10T23:01:14.271Z,98306.83
2019-02-10T23:03:42.697Z,98309.27
2019-02-10T23:06:11.611Z,98312.17
2019-02-10T23:08:40.045Z,98323.15
2019-02-10T23:11:16.055Z,98318.34
2019-02-10T23:13:45.077Z,98319.70
2019-02-10T23:16:13.479Z,98328.77
2019-02-10T23:18:41.981Z,98341.39
2019-02-10T23:21:10.505Z,98349.36
2019-02-10T23:23:39.001Z,98363.25
2019-02-10T23:26:07.424Z,98367.02
2019-02-10T23:28:35.927Z,98380.05
2019-02-10T23:31:04.406Z,98391.80
2019-02-10T23:33:32.928Z,98396.74
2019-02-10T23:36:01.373Z,98402.22
2019-02-10T23:38:29.800Z,98418.67
2019-02-10T23:40:58.255Z,98421.12
2019-02-10T23:43:26.655Z,98433.30
2019-02-10T23:45:55.076Z,98434.98
2019-02-10T23:48:23.532Z,98443.31
2019-02-10T23:50:52.080Z,98448.34
2019-02-10T23:53:20.527Z,98453.27
2019-02-10T23:55:49.029Z,98466.25
2019-02-10T23:58:17.507Z,98484.30
